Time,TemperatureF,DewpointF,PressureIn,WindDirection,WindDirectionDegrees,WindSpeedMPH,WindSpeedGustMPH,Humidity,HourlyPrecipIn,Conditions,Clouds,dailyrainin,SoftwareType,DateUTC
2013-09-23 06:56:00,55.0,53.0,29.93,North,9,0.0,0.0,93,0.00,CLR,,0.00,WeatherDisplay:10.37,2013-09-23 11:56:00,
2013-09-23 07:02:00,55.0,53.0,29.93,North,9,0.0,0.0,93,0.00,CLR,,0.00,WeatherDisplay:10.37,2013-09-23 12:02:00,
2013-09-23 07:07:00,54.9,52.9,29.93,North,9,0.0,0.0,93,0.00,CLR,,0.00,WeatherDisplay:10.37,2013-09-23 12:07:00,
2013-09-23 07:12:00,54.9,52.9,29.93,North,9,0.0,0.0,93,0.00,CLR,,0.00,WeatherDisplay:10.37,2013-09-23 12:12:00,
2013-09-23 07:17:00,54.8,52.8,29.93,North,9,0.0,0.0,93,0.00,CLR,,0.00,WeatherDisplay:10.37,2013-09-23 12:17:00,
2013-09-23 07:22:00,54.9,52.9,29.93,North,9,0.0,0.0,93,0.00,CLR,,0.00,WeatherDisplay:10.37,2013-09-23 12:22:00,
2013-09-23 07:27:00,55.0,53.3,29.94,North,9,0.0,0.0,94,0.00,CLR,,0.00,WeatherDisplay:10.37,2013-09-23 12:27:00,
2013-09-23 07:32:00,55.0,53.0,29.94,North,9,0.0,0.0,93,0.00,CLR,,0.00,WeatherDisplay:10.37,2013-09-23 12:32:00,
2013-09-23 07:37:00,55.2,53.5,29.94,North,9,0.0,0.0,94,0.00,CLR,,0.00,WeatherDisplay:10.37,2013-09-23 12:37:00,
2013-09-23 07:42:00,55.4,53.7,29.94,NNE,13,0.0,0.0,94,0.00,CLR,,0.00,WeatherDisplay:10.37,2013-09-23 12:42:00,
2013-09-23 07:47:00,55.7,54.0,29.94,NNE,23,2.3,2.3,94,0.00,CLR,,0.00,WeatherDisplay:10.37,2013-09-23 12:47:00,
2013-09-23 07:52:00,55.9,54.2,29.94,NNE,33,1.2,1.2,94,0.00,CLR,,0.00,WeatherDisplay:10.37,2013-09-23 12:52:00,
2013-09-23 07:57:00,56.3,54.6,29.94,ENE,57,1.2,0.0,94,0.00,CLR,,0.00,WeatherDisplay:10.37,2013-09-23 12:57:00,
2013-09-23 08:02:00,56.7,55.0,29.94,NNE,30,3.5,3.5,94,0.00,CLR,,0.00,WeatherDisplay:10.37,2013-09-23 13:02:00,
2013-09-23 08:07:00,57.2,55.5,29.94,NNE,23,1.2,0.0,94,0.00,CLR,,0.00,WeatherDisplay:10.37,2013-09-23 13:07:00,
2013-09-23 08:12:00,58.5,56.5,29.94,NE,48,2.3,2.3,93,0.00,CLR,,0.00,WeatherDisplay:10.37,2013-09-23 13:12:00,
2013-09-23 08:17:00,59.3,56.4,29.94,East,99,0.0,0.0,90,0.00,CLR,,0.00,WeatherDisplay:10.37,2013-09-23 13:17:00,
2013-09-23 08:22:00,60.0,56.4,29.94,East,99,0.0,0.0,88,0.00,CLR,,0.00,WeatherDisplay:10.37,2013-09-23 13:22:00,
2013-09-23 08:27:00,60.7,56.8,29.94,ENE,68,2.3,2.3,87,0.00,CLR,,0.00,WeatherDisplay:10.37,2013-09-23 13:27:00,
2013-09-23 08:32:00,61.0,56.8,29.94,NE,41,0.0,0.0,86,0.00,CLR,,0.00,WeatherDisplay:10.37,2013-09-23 13:32:00,
2013-09-23 08:37:00,61.1,56.6,29.94,North,9,0.0,0.0,85,0.00,CLR,,0.00,WeatherDisplay:10.37,2013-09-23 13:37:00,
2013-09-23 08:42:00,61.3,56.8,29.94,North,11,1.2,0.0,85,0.00,CLR,,0.00,WeatherDisplay:10.37,2013-09-23 13:42:00,
2013-09-23 08:47:00,61.4,56.8,29.94,SE,129,1.2,0.0,85,0.00,CLR,,0.00,WeatherDisplay:10.37,2013-09-23 13:47:00,
2013-09-23 08:52:00,61.7,57.1,29.95,SE,125,1.2,1.2,85,0.00,CLR,,0.00,WeatherDisplay:10.37,2013-09-23 13:52:00,
2013-09-23 08:57:00,62.2,57.6,29.95,ENE,75,2.3,2.3,85,0.00,CLR,,0.00,WeatherDisplay:10.37,2013-09-23 13:57:00,
2013-09-23 09:02:00,62.7,57.8,29.95,ESE,104,1.2,0.0,84,0.00,CLR,,0.00,WeatherDisplay:10.37,2013-09-23 14:02:00,
2013-09-23 09:07:00,63.6,58.0,29.95,East,82,3.5,3.5,82,0.00,CLR,,0.00,WeatherDisplay:10.37,2013-09-23 14:07:00,
2013-09-23 09:12:00,64.3,58.3,29.95,ENE,74,1.2,1.2,81,0.00,CLR,,0.00,WeatherDisplay:10.37,2013-09-23 14:12:00,
2013-09-23 09:17:00,64.6,58.6,29.95,NE,37,3.5,0.0,81,0.00,CLR,,0.00,WeatherDisplay:10.37,2013-09-23 14:17:00,
2013-09-23 09:22:00,64.9,58.9,29.95,NE,38,5.0,5.0,81,0.00,CLR,,0.00,WeatherDisplay:10.37,2013-09-23 14:22:00,
2013-09-23 09:27:00,65.2,58.9,29.95,NE,56,0.0,0.0,80,0.00,CLR,,0.00,WeatherDisplay:10.37,2013-09-23 14:27:00,
2013-09-23 09:32:00,65.4,59.1,29.94,ENE,57,2.3,0.0,80,0.00,CLR,,0.00,WeatherDisplay:10.37,2013-09-23 14:32:00,
2013-09-23 09:37:00,65.6,59.3,29.94,South,171,0.0,0.0,80,0.00,CLR,,0.00,WeatherDisplay:10.37,2013-09-23 14:37:00,
2013-09-23 09:42:00,65.9,59.2,29.94,ESE,105,1.2,0.0,79,0.00,CLR,,0.00,WeatherDisplay:10.37,2013-09-23 14:42:00,
2013-09-23 09:47:00,66.2,59.1,29.95,South,178,2.0,2.0,78,0.00,CLR,,0.00,WeatherDisplay:10.37,2013-09-23 14:47:00,
2013-09-23 09:52:00,66.9,59.8,29.94,ENE,67,2.3,2.3,78,0.00,CLR,,0.00,WeatherDisplay:10.37,2013-09-23 14:52:00,
2013-09-23 09:57:00,67.9,59.7,29.94,ENE,75,2.3,2.3,75,0.00,CLR,,0.00,WeatherDisplay:10.37,2013-09-23 14:57:00,
2013-09-23 10:02:00,68.8,60.6,29.95,East,81,3.5,3.5,75,0.00,CLR,,0.00,WeatherDisplay:10.37,2013-09-23 15:02:00,
2013-09-23 10:07:00,69.9,60.8,29.95,ENE,69,3.5,3.5,73,0.00,CLR,,0.00,WeatherDisplay:10.37,2013-09-23 15:07:00,
2013-09-23 10:12:00,70.0,60.9,29.95,ENE,60,4.0,4.0,73,0.00,CLR,,0.00,WeatherDisplay:10.37,2013-09-23 15:12:00,
2013-09-23 10:17:00,70.7,60.8,29.95,SE,126,1.2,1.2,71,0.00,CLR,,0.00,WeatherDisplay:10.37,2013-09-23 15:17:00,
2013-09-23 10:22:00,71.2,60.9,29.95,SSW,197,2.3,2.3,70,0.00,CLR,,0.00,WeatherDisplay:10.37,2013-09-23 15:22:00,
2013-09-23 10:27:00,71.3,61.0,29.94,South,188,3.5,3.5,70,0.00,CLR,,0.00,WeatherDisplay:10.37,2013-09-23 15:27:00,
2013-09-23 10:32:00,72.1,61.8,29.94,ENE,72,3.5,3.5,70,0.00,CLR,,0.00,WeatherDisplay:10.37,2013-09-23 15:32:00,
2013-09-23 10:37:00,72.6,61.4,29.94,SE,129,3.5,3.5,68,0.00,CLR,,0.00,WeatherDisplay:10.37,2013-09-23 15:37:00,
2013-09-23 10:42:00,73.0,62.2,29.94,South,191,2.3,2.3,69,0.00,CLR,,0.00,WeatherDisplay:10.37,2013-09-23 15:42:00,
2013-09-23 10:47:00,73.6,62.0,29.94,NE,45,0.0,0.0,67,0.00,CLR,,0.00,WeatherDisplay:10.37,2013-09-23 15:47:00,
2013-09-23 10:52:00,74.0,62.8,29.94,NE,49,3.5,3.5,68,0.00,CLR,,0.00,WeatherDisplay:10.37,2013-09-23 15:52:00,
2013-09-23 10:57:00,74.6,63.3,29.94,ENE,57,0.0,0.0,68,0.00,CLR,,0.00,WeatherDisplay:10.37,2013-09-23 15:57:00,
2013-09-23 11:02:00,75.2,62.6,29.94,SSE,148,3.5,3.5,65,0.00,CLR,,0.00,WeatherDisplay:10.37,2013-09-23 16:02:00,
2013-09-23 11:07:00,75.8,62.8,29.94,East,82,3.5,3.5,64,0.00,CLR,,0.00,WeatherDisplay:10.37,2013-09-23 16:07:00,
2013-09-23 11:12:00,76.4,62.4,29.94,South,187,3.5,3.5,62,0.00,CLR,,0.00,WeatherDisplay:10.37,2013-09-23 16:12:00,
2013-09-23 11:17:00,76.3,62.3,29.94,South,188,3.5,3.5,62,0.00,CLR,,0.00,WeatherDisplay:10.37,2013-09-23 16:17:00,
2013-09-23 11:22:00,76.3,62.3,29.94,South,182,3.5,3.5,62,0.00,CLR,,0.00,WeatherDisplay:10.37,2013-09-23 16:22:00,
2013-09-23 11:27:00,76.6,62.6,29.93,NE,38,4.6,4.6,62,0.00,CLR,,0.00,WeatherDisplay:10.37,2013-09-23 16:27:00,
2013-09-23 11:32:00,77.2,62.2,29.93,ENE,67,3.5,3.5,60,0.00,CLR,,0.00,WeatherDisplay:10.37,2013-09-23 16:32:00,
2013-09-23 11:37:00,77.5,62.0,29.93,South,178,3.0,3.0,59,0.00,CLR,,0.00,WeatherDisplay:10.37,2013-09-23 16:37:00,
2013-09-23 11:42:00,77.7,61.3,29.94,SSW,192,2.3,2.3,57,0.00,CLR,,0.00,WeatherDisplay:10.37,2013-09-23 16:42:00,
2013-09-23 11:48:00,78.3,62.8,29.93,North,355,0.0,0.0,59,0.00,CLR,,0.00,WeatherDisplay:10.37,2013-09-23 16:48:00,
2013-09-23 11:53:00,78.7,61.7,29.93,SSW,196,4.6,4.6,56,0.00,CLR,,0.00,WeatherDisplay:10.37,2013-09-23 16:53:00,
2013-09-23 11:58:00,78.8,61.8,29.93,South,190,3.5,3.5,56,0.00,CLR,,0.00,WeatherDisplay:10.37,2013-09-23 16:58:00,
2013-09-23 12:03:00,78.9,62.9,29.93,NE,51,3.5,3.5,58,0.00,CLR,,0.00,WeatherDisplay:10.37,2013-09-23 17:03:00,
2013-09-23 12:08:00,79.3,62.2,29.92,NE,37,3.5,3.5,56,0.00,CLR,,0.00,WeatherDisplay:10.37,2013-09-23 17:08:00,
2013-09-23 12:13:00,79.7,62.1,29.92,SSW,199,2.0,2.0,55,0.00,CLR,,0.00,WeatherDisplay:10.37,2013-09-23 17:13:00,
2013-09-23 12:18:00,80.0,62.9,29.92,ENE,61,3.5,3.5,56,0.00,CLR,,0.00,WeatherDisplay:10.37,2013-09-23 17:18:00,
2013-09-23 12:23:00,80.6,62.4,29.92,ENE,67,1.2,0.0,54,0.00,CLR,,0.00,WeatherDisplay:10.37,2013-09-23 17:23:00,
2013-09-23 12:28:00,81.1,62.3,29.92,SE,132,1.2,1.2,53,0.00,CLR,,0.00,WeatherDisplay:10.37,2013-09-23 17:28:00,
2013-09-23 12:33:00,81.3,61.4,29.92,ENE,60,9.2,9.2,51,0.00,CLR,,0.00,WeatherDisplay:10.37,2013-09-23 17:33:00,
2013-09-23 12:38:00,81.4,62.1,29.91,East,96,4.0,4.0,52,0.00,CLR,,0.00,WeatherDisplay:10.37,2013-09-23 17:38:00,
2013-09-23 12:43:00,81.6,61.2,29.91,ENE,74,5.0,5.0,50,0.00,CLR,,0.00,WeatherDisplay:10.37,2013-09-23 17:43:00,
2013-09-23 12:48:00,81.8,61.3,29.91,SSW,203,3.5,3.5,50,0.00,CLR,,0.00,WeatherDisplay:10.37,2013-09-23 17:48:00,
2013-09-23 12:53:00,81.7,60.1,29.91,SSW,209,6.9,6.9,48,0.00,CLR,,0.00,WeatherDisplay:10.37,2013-09-23 17:53:00,
2013-09-23 12:58:00,81.4,61.0,29.91,South,176,5.8,5.8,50,0.00,CLR,,0.00,WeatherDisplay:10.37,2013-09-23 17:58:00,
2013-09-23 13:03:00,81.5,60.5,29.91,NNE,22,3.5,3.5,49,0.00,CLR,,0.00,WeatherDisplay:10.37,2013-09-23 18:03:00,
2013-09-23 13:08:00,81.8,61.3,29.91,NNW,348,3.5,3.5,50,0.00,CLR,,0.00,WeatherDisplay:10.37,2013-09-23 18:08:00,
2013-09-23 13:13:00,82.2,61.7,29.90,SSW,194,5.8,5.8,50,0.00,CLR,,0.00,WeatherDisplay:10.37,2013-09-23 18:13:00,
2013-09-23 13:18:00,81.9,60.3,29.90,NE,34,3.5,3.5,48,0.00,CLR,,0.00,WeatherDisplay:10.37,2013-09-23 18:18:00,
2013-09-23 13:23:00,82.0,61.5,29.90,South,188,3.5,3.5,50,0.00,CLR,,0.00,WeatherDisplay:10.37,2013-09-23 18:23:00,
2013-09-23 13:28:00,82.4,61.3,29.90,South,171,5.8,5.8,49,0.00,CLR,,0.00,WeatherDisplay:10.37,2013-09-23 18:28:00,
2013-09-23 13:33:00,82.7,60.4,29.89,East,82,5.8,5.8,47,0.00,CLR,,0.00,WeatherDisplay:10.37,2013-09-23 18:33:00,
2013-09-23 13:38:00,82.8,60.5,29.89,NE,52,2.3,2.3,47,0.00,CLR,,0.00,WeatherDisplay:10.37,2013-09-23 18:38:00,
2013-09-23 13:43:00,82.8,61.1,29.89,SSW,207,6.9,6.9,48,0.00,CLR,,0.00,WeatherDisplay:10.37,2013-09-23 18:43:00,
2013-09-23 13:48:00,82.8,61.1,29.89,SSW,199,5.8,5.8,48,0.00,CLR,,0.00,WeatherDisplay:10.37,2013-09-23 18:48:00,
2013-09-23 13:53:00,82.7,62.2,29.89,SSE,165,4.0,4.0,50,0.00,CLR,,0.00,WeatherDisplay:10.37,2013-09-23 18:53:00,
2013-09-23 13:58:00,82.6,60.9,29.89,South,175,4.6,4.6,48,0.00,CLR,,0.00,WeatherDisplay:10.37,2013-09-23 18:58:00,
2013-09-23 14:03:00,82.6,60.9,29.88,South,175,3.5,3.5,48,0.00,CLR,,0.00,WeatherDisplay:10.37,2013-09-23 19:03:00,
2013-09-23 14:08:00,82.6,62.1,29.88,South,173,1.2,1.2,50,0.00,CLR,,0.00,WeatherDisplay:10.37,2013-09-23 19:08:00,
2013-09-23 14:13:00,82.7,61.0,29.88,South,178,3.5,3.5,48,0.00,CLR,,0.00,WeatherDisplay:10.37,2013-09-23 19:13:00,
2013-09-23 14:18:00,82.8,61.1,29.88,NE,55,11.5,11.5,48,0.00,CLR,,0.00,WeatherDisplay:10.37,2013-09-23 19:18:00,
2013-09-23 14:23:00,82.9,62.4,29.88,North,355,3.5,3.5,50,0.00,CLR,,0.00,WeatherDisplay:10.37,2013-09-23 19:23:00,
2013-09-23 14:28:00,83.2,62.6,29.88,ENE,61,3.5,3.5,50,0.00,CLR,,0.00,WeatherDisplay:10.37,2013-09-23 19:28:00,
2013-09-23 14:33:00,83.6,63.0,29.88,NE,51,3.5,3.5,50,0.00,CLR,,0.00,WeatherDisplay:10.37,2013-09-23 19:33:00,
2013-09-23 14:38:00,84.3,62.5,29.87,North,355,6.9,6.9,48,0.00,CLR,,0.00,WeatherDisplay:10.37,2013-09-23 19:38:00,
2013-09-23 14:43:00,84.6,62.1,29.87,NE,41,3.5,3.5,47,0.00,CLR,,0.00,WeatherDisplay:10.37,2013-09-23 19:43:00,
2013-09-23 14:48:00,84.7,62.8,29.87,NE,53,3.5,3.5,48,0.00,CLR,,0.00,WeatherDisplay:10.37,2013-09-23 19:48:00,
2013-09-23 14:53:00,84.8,62.3,29.87,SSW,210,4.6,4.6,47,0.00,CLR,,0.00,WeatherDisplay:10.37,2013-09-23 19:53:00,
2013-09-23 14:58:00,84.7,62.8,29.87,ENE,72,1.2,1.2,48,0.00,CLR,,0.00,WeatherDisplay:10.37,2013-09-23 19:58:00,
2013-09-23 15:03:00,84.7,62.8,29.86,South,187,1.2,0.0,48,0.00,CLR,,0.00,WeatherDisplay:10.37,2013-09-23 20:03:00,
2013-09-23 15:08:00,84.5,61.4,29.86,SSW,201,4.6,4.6,46,0.00,CLR,,0.00,WeatherDisplay:10.37,2013-09-23 20:08:00,
2013-09-23 15:13:00,84.1,61.7,29.86,West,263,5.8,5.8,47,0.00,CLR,,0.00,WeatherDisplay:10.37,2013-09-23 20:13:00,
2013-09-23 15:18:00,83.9,61.5,29.86,SSW,203,10.4,10.4,47,0.00,CLR,,0.00,WeatherDisplay:10.37,2013-09-23 20:18:00,
2013-09-23 15:23:00,83.9,61.5,29.86,SW,219,4.6,4.6,47,0.00,CLR,,0.00,WeatherDisplay:10.37,2013-09-23 20:23:00,
2013-09-23 15:28:00,84.0,61.6,29.86,South,191,3.5,3.5,47,0.00,CLR,,0.00,WeatherDisplay:10.37,2013-09-23 20:28:00,
2013-09-23 15:33:00,84.0,62.8,29.86,ESE,105,1.2,1.2,49,0.00,CLR,,0.00,WeatherDisplay:10.37,2013-09-23 20:33:00,
2013-09-23 15:38:00,83.9,62.1,29.85,SW,220,0.0,0.8,48,0.00,CLR,,0.00,WeatherDisplay:10.37,2013-09-23 20:38:00,
2013-09-23 15:43:00,83.9,61.5,29.85,South,173,1.2,1.2,47,0.00,CLR,,0.00,WeatherDisplay:10.37,2013-09-23 20:43:00,
2013-09-23 15:48:00,84.1,62.3,29.85,South,175,5.8,5.8,48,0.00,CLR,,0.00,WeatherDisplay:10.37,2013-09-23 20:48:00,
2013-09-23 15:53:00,84.2,62.4,29.85,NE,38,4.0,4.0,48,0.00,CLR,,0.00,WeatherDisplay:10.37,2013-09-23 20:53:00,
2013-09-23 15:58:00,84.1,62.9,29.85,NE,52,1.2,0.0,49,0.00,CLR,,0.00,WeatherDisplay:10.37,2013-09-23 20:58:00,
2013-09-23 16:03:00,84.1,63.5,29.85,ENE,61,2.0,2.0,50,0.00,CLR,,0.00,WeatherDisplay:10.37,2013-09-23 21:03:00,
2013-09-23 16:08:00,84.2,62.4,29.85,South,175,1.2,1.2,48,0.00,CLR,,0.00,WeatherDisplay:10.37,2013-09-23 21:08:00,
2013-09-23 16:13:00,83.9,62.1,29.85,SSW,196,3.5,3.5,48,0.00,CLR,,0.00,WeatherDisplay:10.37,2013-09-23 21:13:00,
2013-09-23 16:18:00,83.7,62.5,29.85,NE,45,1.2,1.2,49,0.00,CLR,,0.00,WeatherDisplay:10.37,2013-09-23 21:18:00,
2013-09-23 16:23:00,83.7,61.9,29.85,South,185,3.5,3.5,48,0.00,CLR,,0.00,WeatherDisplay:10.37,2013-09-23 21:23:00,
2013-09-23 16:28:00,83.7,61.9,29.85,NE,51,3.0,3.0,48,0.00,CLR,,0.00,WeatherDisplay:10.37,2013-09-23 21:28:00,
2013-09-23 16:33:00,83.7,62.5,29.85,South,191,2.3,2.3,49,0.00,CLR,,0.00,WeatherDisplay:10.37,2013-09-23 21:33:00,
2013-09-23 16:38:00,83.8,62.6,29.85,ENE,74,2.3,2.3,49,0.00,CLR,,0.00,WeatherDisplay:10.37,2013-09-23 21:38:00,
2013-09-23 16:43:00,83.7,61.9,29.85,East,82,3.5,3.5,48,0.00,CLR,,0.00,WeatherDisplay:10.37,2013-09-23 21:43:00,
2013-09-23 16:48:00,83.6,61.8,29.85,SSW,202,1.2,1.2,48,0.00,CLR,,0.00,WeatherDisplay:10.37,2013-09-23 21:48:00,
2013-09-23 16:53:00,83.7,61.9,29.85,ENE,72,3.5,3.5,48,0.00,CLR,,0.00,WeatherDisplay:10.37,2013-09-23 21:53:00,
2013-09-23 16:58:00,83.7,62.5,29.85,ENE,67,3.5,3.5,49,0.00,CLR,,0.00,WeatherDisplay:10.37,2013-09-23 21:58:00,
2013-09-23 17:03:00,83.9,62.1,29.85,NE,55,5.8,5.8,48,0.00,CLR,,0.00,WeatherDisplay:10.37,2013-09-23 22:03:00,
2013-09-23 17:08:00,84.1,62.9,29.85,NNE,29,3.0,3.0,49,0.00,CLR,,0.00,WeatherDisplay:10.37,2013-09-23 22:08:00,
2013-09-23 17:13:00,84.2,63.0,29.85,ENE,62,4.6,4.6,49,0.00,CLR,,0.00,WeatherDisplay:10.37,2013-09-23 22:13:00,
2013-09-23 17:18:00,84.0,62.8,29.85,NE,53,5.8,5.8,49,0.00,CLR,,0.00,WeatherDisplay:10.37,2013-09-23 22:18:00,
2013-09-23 17:23:00,83.6,63.0,29.85,NE,37,3.5,3.5,50,0.00,CLR,,0.00,WeatherDisplay:10.37,2013-09-23 22:23:00,
2013-09-23 17:28:00,83.3,62.7,29.85,ENE,73,3.5,3.5,50,0.00,CLR,,0.00,WeatherDisplay:10.37,2013-09-23 22:28:00,
2013-09-23 17:33:00,83.0,63.0,29.85,East,95,3.5,3.5,51,0.00,CLR,,0.00,WeatherDisplay:10.37,2013-09-23 22:33:00,
2013-09-23 17:38:00,82.7,63.3,29.85,NE,53,3.5,3.5,52,0.00,CLR,,0.00,WeatherDisplay:10.37,2013-09-23 22:38:00,
2013-09-23 17:43:00,82.5,63.6,29.85,ENE,78,3.5,0.0,53,0.00,CLR,,0.00,WeatherDisplay:10.37,2013-09-23 22:43:00,
2013-09-23 17:48:00,82.3,63.5,29.85,NNE,30,1.2,1.2,53,0.00,CLR,,0.00,WeatherDisplay:10.37,2013-09-23 22:48:00,
2013-09-23 17:53:00,82.0,63.2,29.85,NE,41,3.0,3.0,53,0.00,CLR,,0.00,WeatherDisplay:10.37,2013-09-23 22:53:00,
2013-09-23 17:58:00,81.7,63.4,29.86,NNE,19,1.2,1.2,54,0.00,CLR,,0.00,WeatherDisplay:10.37,2013-09-23 22:58:00,
2013-09-23 18:03:00,81.5,63.3,29.86,NE,53,1.2,0.0,54,0.00,CLR,,0.00,WeatherDisplay:10.37,2013-09-23 23:03:00,
2013-09-23 18:08:00,81.4,63.2,29.86,NE,49,2.0,2.0,54,0.00,CLR,,0.00,WeatherDisplay:10.37,2013-09-23 23:08:00,
2013-09-23 18:13:00,81.2,63.5,29.86,NE,46,1.2,0.0,55,0.00,CLR,,0.00,WeatherDisplay:10.37,2013-09-23 23:13:00,
2013-09-23 18:18:00,81.1,63.4,29.86,ENE,73,3.5,0.0,55,0.00,CLR,,0.00,WeatherDisplay:10.37,2013-09-23 23:18:00,
2013-09-23 18:23:00,80.9,63.7,29.86,ENE,73,1.2,0.0,56,0.00,CLR,,0.00,WeatherDisplay:10.37,2013-09-23 23:23:00,
2013-09-23 18:28:00,80.6,64.0,29.86,ENE,73,0.0,0.1,57,0.00,CLR,,0.00,WeatherDisplay:10.37,2013-09-23 23:28:00,
2013-09-23 18:33:00,80.3,63.7,29.86,ENE,65,0.0,0.7,57,0.00,CLR,,0.00,WeatherDisplay:10.37,2013-09-23 23:33:00,
2013-09-23 18:38:00,80.0,63.4,29.86,NE,53,3.5,3.5,57,0.00,CLR,,0.00,WeatherDisplay:10.37,2013-09-23 23:38:00,
2013-09-23 18:44:00,79.7,63.6,29.86,NE,53,1.2,0.0,58,0.00,CLR,,0.00,WeatherDisplay:10.37,2013-09-23 23:44:00,
2013-09-23 18:49:00,79.4,63.8,29.86,NE,53,0.0,0.0,59,0.00,CLR,,0.00,WeatherDisplay:10.37,2013-09-23 23:49:00,
2013-09-23 18:54:00,79.2,63.6,29.86,NE,53,0.0,0.0,59,0.00,CLR,,0.00,WeatherDisplay:10.37,2013-09-23 23:54:00,
2013-09-23 18:59:00,78.9,63.8,29.86,NE,53,0.0,0.0,60,0.00,CLR,,0.00,WeatherDisplay:10.37,2013-09-23 23:59:00,
2013-09-23 19:04:00,78.7,63.6,29.86,NE,53,0.0,0.0,60,0.00,CLR,,0.00,WeatherDisplay:10.37,2013-09-24 00:04:00,
2013-09-23 19:09:00,78.3,65.6,29.86,NE,53,0.0,0.0,65,0.00,CLR,,0.00,WeatherDisplay:10.37,2013-09-24 00:09:00,
2013-09-23 19:14:00,77.6,66.2,29.86,NE,53,0.0,0.0,68,0.00,CLR,,0.00,WeatherDisplay:10.37,2013-09-24 00:14:00,
2013-09-23 19:19:00,76.8,66.3,29.86,NE,53,0.0,0.0,70,0.00,CLR,,0.00,WeatherDisplay:10.37,2013-09-24 00:19:00,
2013-09-23 19:24:00,76.0,66.3,29.86,NE,53,0.0,0.0,72,0.00,CLR,,0.00,WeatherDisplay:10.37,2013-09-24 00:24:00,
2013-09-23 19:29:00,75.2,65.9,29.86,NE,53,0.0,0.0,73,0.00,CLR,,0.00,WeatherDisplay:10.37,2013-09-24 00:29:00,
2013-09-23 19:34:00,74.4,66.0,29.86,NE,53,0.0,0.0,75,0.00,CLR,,0.00,WeatherDisplay:10.37,2013-09-24 00:34:00,
2013-09-23 19:39:00,73.8,65.8,29.86,NE,53,0.0,0.0,76,0.00,CLR,,0.00,WeatherDisplay:10.37,2013-09-24 00:39:00,
2013-09-23 19:44:00,73.4,65.7,29.86,NE,53,0.0,0.0,77,0.00,CLR,,0.00,WeatherDisplay:10.37,2013-09-24 00:44:00,
2013-09-23 19:49:00,73.0,65.4,29.86,NE,53,0.0,0.0,77,0.00,CLR,,0.00,WeatherDisplay:10.37,2013-09-24 00:49:00,
2013-09-23 19:54:00,72.7,65.4,29.86,NE,53,0.0,0.0,78,0.00,CLR,,0.00,WeatherDisplay:10.37,2013-09-24 00:54:00,
2013-09-23 19:59:00,72.4,65.5,29.87,East,80,0.0,0.0,79,0.00,CLR,,0.00,WeatherDisplay:10.37,2013-09-24 00:59:00,
2013-09-23 20:04:00,72.1,65.6,29.87,East,80,0.0,0.0,80,0.00,CLR,,0.00,WeatherDisplay:10.37,2013-09-24 01:04:00,
2013-09-23 20:09:00,71.7,65.6,29.87,East,80,0.0,0.0,81,0.00,CLR,,0.00,WeatherDisplay:10.37,2013-09-24 01:09:00,
2013-09-23 20:14:00,71.3,65.2,29.87,East,80,0.0,0.0,81,0.00,CLR,,0.00,WeatherDisplay:10.37,2013-09-24 01:14:00,
2013-09-23 20:19:00,70.9,64.8,29.87,East,80,0.0,0.0,81,0.00,CLR,,0.00,WeatherDisplay:10.37,2013-09-24 01:19:00,
2013-09-23 20:24:00,70.5,64.4,29.88,East,80,0.0,0.0,81,0.00,CLR,,0.00,WeatherDisplay:10.37,2013-09-24 01:24:00,
2013-09-23 20:29:00,70.2,64.4,29.88,East,80,0.0,0.0,82,0.00,CLR,,0.00,WeatherDisplay:10.37,2013-09-24 01:29:00,
2013-09-23 20:34:00,69.9,64.2,29.88,East,80,0.0,0.0,82,0.00,CLR,,0.00,WeatherDisplay:10.37,2013-09-24 01:34:00,
2013-09-23 20:39:00,69.7,64.3,29.88,East,80,0.0,0.0,83,0.00,CLR,,0.00,WeatherDisplay:10.37,2013-09-24 01:39:00,
2013-09-23 20:44:00,69.4,64.4,29.88,East,80,0.0,0.0,84,0.00,CLR,,0.00,WeatherDisplay:10.37,2013-09-24 01:44:00,
2013-09-23 20:49:00,69.2,64.2,29.89,East,80,0.0,0.0,84,0.00,CLR,,0.00,WeatherDisplay:10.37,2013-09-24 01:49:00,
2013-09-23 20:54:00,69.1,64.1,29.89,East,80,0.0,0.0,84,0.00,CLR,,0.00,WeatherDisplay:10.37,2013-09-24 01:54:00,
2013-09-23 20:59:00,69.0,64.0,29.89,East,80,0.0,0.0,84,0.00,CLR,,0.00,WeatherDisplay:10.37,2013-09-24 01:59:00,
2013-09-23 21:04:00,68.8,64.1,29.89,East,80,0.0,0.0,85,0.00,CLR,,0.00,WeatherDisplay:10.37,2013-09-24 02:04:00,
2013-09-23 21:09:00,68.7,64.3,29.88,East,80,0.0,0.0,86,0.00,CLR,,0.00,WeatherDisplay:10.37,2013-09-24 02:09:00,
2013-09-23 21:14:00,68.6,64.2,29.88,East,80,0.0,0.0,86,0.00,CLR,,0.00,WeatherDisplay:10.37,2013-09-24 02:14:00,
2013-09-23 21:19:00,68.4,64.0,29.88,East,80,0.0,0.0,86,0.00,CLR,,0.00,WeatherDisplay:10.37,2013-09-24 02:19:00,
2013-09-23 21:24:00,68.2,63.9,29.89,East,80,0.0,0.0,86,0.00,CLR,,0.00,WeatherDisplay:10.37,2013-09-24 02:24:00,
2013-09-23 21:29:00,68.0,64.0,29.88,East,80,0.0,0.0,87,0.00,CLR,,0.00,WeatherDisplay:10.37,2013-09-24 02:29:00,
2013-09-23 21:34:00,67.8,63.5,29.88,East,80,0.0,0.0,86,0.00,CLR,,0.00,WeatherDisplay:10.37,2013-09-24 02:34:00,
2013-09-23 21:39:00,67.6,63.3,29.88,East,80,0.0,0.0,86,0.00,CLR,,0.00,WeatherDisplay:10.37,2013-09-24 02:39:00,
2013-09-23 21:44:00,67.5,63.2,29.88,East,80,0.0,0.0,86,0.00,CLR,,0.00,WeatherDisplay:10.37,2013-09-24 02:44:00,
2013-09-23 21:49:00,67.3,63.0,29.88,East,80,0.0,0.0,86,0.00,CLR,,0.00,WeatherDisplay:10.37,2013-09-24 02:49:00,
2013-09-23 21:54:00,67.2,63.2,29.89,East,80,0.0,0.0,87,0.00,CLR,,0.00,WeatherDisplay:10.37,2013-09-24 02:54:00,
2013-09-23 21:59:00,67.1,63.1,29.89,East,80,0.0,0.0,87,0.00,CLR,,0.00,WeatherDisplay:10.37,2013-09-24 02:59:00,
2013-09-23 22:04:00,67.0,63.0,29.89,East,80,0.0,0.0,87,0.00,CLR,,0.00,WeatherDisplay:10.37,2013-09-24 03:04:00,
2013-09-23 22:09:00,66.9,62.9,29.89,East,80,0.0,0.0,87,0.00,CLR,,0.00,WeatherDisplay:10.37,2013-09-24 03:09:00,
2013-09-23 22:14:00,66.8,62.8,29.89,East,80,0.0,0.0,87,0.00,CLR,,0.00,WeatherDisplay:10.37,2013-09-24 03:14:00,
2013-09-23 22:16:00,70.3,68.8,29.89,South,184,0.0,3.0,95,0.00,CLR,,0.00,WeatherDisplay:10.37,2013-09-24 03:16:00,
2013-09-23 22:17:00,70.3,68.8,29.89,South,184,0.0,0.0,95,0.00,CLR,,0.00,WeatherDisplay:10.37,2013-09-24 03:17:00,
2013-09-23 22:18:00,70.3,68.8,29.89,South,184,0.0,0.0,95,0.00,CLR,,0.00,WeatherDisplay:10.37,2013-09-24 03:18:00,
2013-09-23 22:19:00,66.7,62.7,29.89,East,80,0.0,0.0,87,0.00,CLR,,0.00,WeatherDisplay:10.37,2013-09-24 03:19:00,
2013-09-23 22:20:00,70.3,68.8,29.89,South,184,0.0,0.0,95,0.00,CLR,,0.00,WeatherDisplay:10.37,2013-09-24 03:20:00,
2013-09-23 22:24:00,66.6,62.9,29.89,East,80,0.0,0.0,88,0.00,CLR,,0.00,WeatherDisplay:10.37,2013-09-24 03:24:00,
2013-09-23 22:29:00,66.5,62.8,29.89,East,80,0.0,0.0,88,0.00,CLR,,0.00,WeatherDisplay:10.37,2013-09-24 03:29:00,
2013-09-23 22:34:00,66.3,62.6,29.89,East,80,0.0,0.0,88,0.00,CLR,,0.00,WeatherDisplay:10.37,2013-09-24 03:34:00,
2013-09-23 22:39:00,66.2,62.5,29.89,East,80,0.0,0.0,88,0.00,CLR,,0.00,WeatherDisplay:10.37,2013-09-24 03:39:00,
2013-09-23 22:44:00,66.0,62.3,29.89,East,80,0.0,0.0,88,0.00,CLR,,0.00,WeatherDisplay:10.37,2013-09-24 03:44:00,
2013-09-23 22:49:00,65.8,62.5,29.89,East,80,0.0,0.0,89,0.00,CLR,,0.00,WeatherDisplay:10.37,2013-09-24 03:49:00,
2013-09-23 22:54:00,65.6,62.3,29.89,East,80,0.0,0.0,89,0.00,CLR,,0.00,WeatherDisplay:10.37,2013-09-24 03:54:00,
2013-09-23 22:59:00,65.5,62.2,29.89,East,80,0.0,0.0,89,0.00,CLR,,0.00,WeatherDisplay:10.37,2013-09-24 03:59:00,
2013-09-23 23:01:00,65.5,62.2,29.89,East,80,0.0,0.0,89,0.00,CLR,,0.00,WeatherDisplay:10.37,2013-09-24 04:01:00,
2013-09-23 23:06:00,65.3,62.3,29.89,East,80,0.0,0.0,90,0.00,CLR,,0.00,WeatherDisplay:10.37,2013-09-24 04:06:00,
2013-09-23 23:11:00,65.2,62.2,29.89,East,80,0.0,0.0,90,0.00,CLR,,0.00,WeatherDisplay:10.37,2013-09-24 04:11:00,
2013-09-23 23:16:00,65.1,62.1,29.89,East,80,0.0,0.0,90,0.00,CLR,,0.00,WeatherDisplay:10.37,2013-09-24 04:16:00,
2013-09-23 23:21:00,65.0,62.0,29.89,East,80,0.0,0.0,90,0.00,CLR,,0.00,WeatherDisplay:10.37,2013-09-24 04:21:00,
2013-09-23 23:27:00,64.9,61.9,29.89,East,80,0.0,0.0,90,0.00,CLR,,0.00,WeatherDisplay:10.37,2013-09-24 04:27:00,
2013-09-23 23:32:00,64.8,61.8,29.88,East,80,0.0,0.0,90,0.00,CLR,,0.00,WeatherDisplay:10.37,2013-09-24 04:32:00,
2013-09-23 23:37:00,64.8,62.1,29.88,East,80,0.0,0.0,91,0.00,CLR,,0.00,WeatherDisplay:10.37,2013-09-24 04:37:00,
2013-09-23 23:42:00,64.8,62.1,29.88,East,80,0.0,0.0,91,0.00,CLR,,0.00,WeatherDisplay:10.37,2013-09-24 04:42:00,
2013-09-23 23:47:00,64.9,62.2,29.88,East,80,0.0,0.0,91,0.00,CLR,,0.00,WeatherDisplay:10.37,2013-09-24 04:47:00,
2013-09-23 23:52:00,64.9,62.2,29.88,East,80,0.0,0.0,91,0.00,CLR,,0.00,WeatherDisplay:10.37,2013-09-24 04:52:00,
2013-09-23 23:57:00,65.0,62.3,29.88,East,80,0.0,0.0,91,0.00,CLR,,0.00,WeatherDisplay:10.37,2013-09-24 04:57:00,